createdAt,value
2017-03-12T00:00:03.855Z,0
2017-03-12T00:01:15.517Z,0
2017-03-12T00:02:26.991Z,0
2017-03-12T00:03:38.431Z,0
2017-03-12T00:04:49.868Z,0
2017-03-12T00:06:01.335Z,0
2017-03-12T00:07:12.796Z,0
2017-03-12T00:08:24.240Z,0
2017-03-12T00:09:35.723Z,0
2017-03-12T00:10:47.204Z,0
2017-03-12T00:11:58.869Z,0
2017-03-12T00:13:10.362Z,0
2017-03-12T00:14:21.803Z,0
2017-03-12T00:15:33.247Z,0
2017-03-12T00:16:44.694Z,0
2017-03-12T00:17:56.141Z,0
2017-03-12T00:19:07.584Z,0
2017-03-12T00:20:19.634Z,0
2017-03-12T00:21:31.098Z,0
2017-03-12T00:22:42.534Z,0
2017-03-12T00:23:54.177Z,0
2017-03-12T00:25:05.612Z,0
2017-03-12T00:26:17.073Z,0
2017-03-12T00:27:28.543Z,0
2017-03-12T00:28:40.038Z,0
2017-03-12T00:29:51.500Z,0
2017-03-12T00:31:02.999Z,0
2017-03-12T00:32:14.437Z,0
2017-03-12T00:33:26.102Z,0
2017-03-12T00:34:37.562Z,0
2017-03-12T00:35:49.010Z,0
2017-03-12T00:37:00.458Z,0
2017-03-12T00:38:11.916Z,0
2017-03-12T00:39:23.555Z,0
2017-03-12T00:40:35.209Z,0
2017-03-12T00:41:46.651Z,0
2017-03-12T00:42:58.104Z,0
2017-03-12T00:44:09.569Z,0
2017-03-12T00:45:21.019Z,0
2017-03-12T00:46:32.507Z,0
2017-03-12T00:47:43.938Z,0
2017-03-12T00:48:55.389Z,0
2017-03-12T00:50:07.064Z,0
2017-03-12T00:51:18.533Z,0
2017-03-12T00:52:30.001Z,0
2017-03-12T00:53:41.650Z,0
2017-03-12T00:54:53.105Z,0
2017-03-12T00:56:04.552Z,0
2017-03-12T00:57:16.017Z,0
2017-03-12T00:58:27.481Z,0
2017-03-12T00:59:38.919Z,0
2017-03-12T01:00:50.383Z,0
2017-03-12T01:02:01.845Z,0
2017-03-12T01:03:13.292Z,0
2017-03-12T01:04:24.738Z,0
2017-03-12T01:05:36.185Z,0
2017-03-12T01:06:47.698Z,0
2017-03-12T01:07:59.352Z,0
2017-03-12T01:09:10.813Z,0
2017-03-12T01:10:22.670Z,0
2017-03-12T01:11:34.322Z,0
2017-03-12T01:12:46.167Z,0
2017-03-12T01:13:57.602Z,0
2017-03-12T01:15:09.042Z,0
2017-03-12T01:16:20.476Z,0
2017-03-12T01:17:31.987Z,0
2017-03-12T01:18:43.446Z,0
2017-03-12T01:19:54.900Z,0
2017-03-12T01:21:06.570Z,0
2017-03-12T01:22:18.033Z,0
2017-03-12T01:23:29.477Z,0
2017-03-12T01:24:40.927Z,0
2017-03-12T01:25:52.384Z,0
2017-03-12T01:27:04.036Z,0
2017-03-12T01:28:15.906Z,0
2017-03-12T01:29:27.335Z,0
2017-03-12T01:30:38.763Z,0
2017-03-12T01:31:50.215Z,0
2017-03-12T01:33:01.874Z,0
2017-03-12T01:34:13.308Z,0
2017-03-12T01:35:24.744Z,0
2017-03-12T01:36:36.390Z,0
2017-03-12T01:37:47.876Z,0
2017-03-12T01:38:59.319Z,0
2017-03-12T01:40:10.971Z,0
2017-03-12T01:41:22.456Z,0
2017-03-12T01:42:33.892Z,0
2017-03-12T01:43:45.647Z,0
2017-03-12T01:44:57.134Z,0
2017-03-12T01:46:08.586Z,0
2017-03-12T01:47:20.260Z,0
2017-03-12T01:48:31.942Z,0
2017-03-12T01:49:43.399Z,0
2017-03-12T01:50:54.851Z,0
2017-03-12T01:52:06.293Z,0
2017-03-12T01:53:18.128Z,0
2017-03-12T01:54:29.632Z,0
2017-03-12T01:55:41.106Z,0
2017-03-12T01:56:52.588Z,0
2017-03-12T01:58:04.031Z,0
2017-03-12T01:59:15.486Z,0
2017-03-12T02:00:26.936Z,0
2017-03-12T02:01:38.599Z,0
2017-03-12T02:02:50.033Z,0
2017-03-12T02:04:01.675Z,0
2017-03-12T02:05:13.187Z,0
2017-03-12T02:06:24.660Z,0
2017-03-12T02:07:36.109Z,0
2017-03-12T02:08:47.557Z,0
2017-03-12T02:09:58.999Z,0
2017-03-12T02:11:10.452Z,0
2017-03-12T02:12:21.885Z,0
2017-03-12T02:13:33.353Z,0
2017-03-12T02:14:44.814Z,0
2017-03-12T02:15:56.273Z,0
2017-03-12T02:17:07.721Z,0
2017-03-12T02:18:19.158Z,0
2017-03-12T02:19:30.610Z,0
2017-03-12T02:20:42.065Z,0
2017-03-12T02:21:53.555Z,0
2017-03-12T02:23:05.215Z,0
2017-03-12T02:24:16.673Z,0
2017-03-12T02:25:28.104Z,0
2017-03-12T02:26:39.742Z,0
2017-03-12T02:27:51.178Z,0
2017-03-12T02:29:02.623Z,0
2017-03-12T02:30:14.491Z,0
2017-03-12T02:31:25.936Z,0
2017-03-12T02:32:37.394Z,0
2017-03-12T02:33:48.851Z,0
2017-03-12T02:35:00.304Z,0
2017-03-12T02:36:11.970Z,0
2017-03-12T02:37:23.430Z,0
2017-03-12T02:38:34.909Z,0
2017-03-12T02:39:46.364Z,0
2017-03-12T02:40:58.023Z,0
2017-03-12T02:42:09.486Z,0
2017-03-12T02:43:21.147Z,0
2017-03-12T02:44:32.588Z,0
2017-03-12T02:45:44.037Z,0
2017-03-12T02:46:55.533Z,0
2017-03-12T02:48:06.956Z,0
2017-03-12T02:49:18.614Z,0
2017-03-12T02:50:30.286Z,0
2017-03-12T02:51:41.744Z,0
2017-03-12T02:52:53.184Z,0
2017-03-12T02:54:04.646Z,0
2017-03-12T02:55:16.083Z,0
2017-03-12T02:56:27.935Z,0
2017-03-12T02:57:39.647Z,0
2017-03-12T02:58:51.099Z,0
2017-03-12T03:00:02.755Z,0
2017-03-12T03:01:14.197Z,0
2017-03-12T03:02:25.635Z,0
2017-03-12T03:03:37.071Z,0
2017-03-12T03:04:48.497Z,0
2017-03-12T03:06:00.147Z,0
2017-03-12T03:07:11.604Z,0
2017-03-12T03:08:23.132Z,0
2017-03-12T03:09:34.601Z,0
2017-03-12T03:10:46.090Z,0
2017-03-12T03:11:57.548Z,0
2017-03-12T03:13:09.013Z,0
2017-03-12T03:14:20.455Z,0
2017-03-12T03:15:32.114Z,0
2017-03-12T03:16:43.751Z,0
2017-03-12T03:17:55.187Z,0
2017-03-12T03:19:06.879Z,0
2017-03-12T03:20:18.348Z,0
2017-03-12T03:21:29.793Z,0
2017-03-12T03:22:41.247Z,0
2017-03-12T03:23:52.702Z,0
2017-03-12T03:25:04.150Z,0
2017-03-12T03:26:15.997Z,0
2017-03-12T03:27:27.436Z,0
2017-03-12T03:28:39.086Z,0
2017-03-12T03:29:50.527Z,0
2017-03-12T03:31:02.162Z,0
2017-03-12T03:32:13.631Z,0
2017-03-12T03:33:25.289Z,0
2017-03-12T03:34:36.984Z,0
2017-03-12T03:35:48.427Z,0
2017-03-12T03:36:59.876Z,0
2017-03-12T03:38:11.324Z,0
2017-03-12T03:39:22.777Z,0
2017-03-12T03:40:34.237Z,0
2017-03-12T03:41:45.722Z,0
2017-03-12T03:42:57.388Z,0
2017-03-12T03:44:09.043Z,0
2017-03-12T03:45:20.699Z,0
2017-03-12T03:46:32.325Z,0
2017-03-12T03:47:43.760Z,0
2017-03-12T03:48:55.201Z,0
2017-03-12T03:50:06.857Z,0
2017-03-12T03:51:18.309Z,0
2017-03-12T03:52:29.966Z,0
2017-03-12T03:53:41.402Z,0
2017-03-12T03:54:52.951Z,0
2017-03-12T03:56:04.395Z,0
2017-03-12T03:57:15.837Z,0
2017-03-12T03:58:27.288Z,0
2017-03-12T03:59:38.739Z,0
2017-03-12T04:00:50.373Z,0
2017-03-12T04:02:01.824Z,0
2017-03-12T04:03:13.278Z,0
2017-03-12T04:04:24.739Z,0
2017-03-12T04:05:36.257Z,0
2017-03-12T04:06:47.706Z,0
2017-03-12T04:07:59.141Z,0
2017-03-12T04:09:10.580Z,0
2017-03-12T04:10:22.028Z,0
2017-03-12T04:11:33.463Z,0
2017-03-12T04:12:44.914Z,0
2017-03-12T04:13:56.571Z,0
2017-03-12T04:15:08.007Z,0
2017-03-12T04:16:19.701Z,0
2017-03-12T04:17:31.345Z,0
2017-03-12T04:18:43.004Z,0
2017-03-12T04:19:54.641Z,0
2017-03-12T04:21:06.092Z,0
2017-03-12T04:22:17.531Z,0
2017-03-12T04:23:28.974Z,0
2017-03-12T04:24:40.612Z,0
2017-03-12T04:25:52.085Z,0
2017-03-12T04:27:03.577Z,0
2017-03-12T04:28:15.030Z,0
2017-03-12T04:29:26.688Z,0
2017-03-12T04:30:38.360Z,0
2017-03-12T04:31:49.817Z,0
2017-03-12T04:33:01.470Z,0
2017-03-12T04:34:12.926Z,0
2017-03-12T04:35:24.570Z,0
2017-03-12T04:36:36.028Z,0
2017-03-12T04:37:47.491Z,0
2017-03-12T04:38:58.941Z,0
2017-03-12T04:40:10.399Z,0
2017-03-12T04:41:21.837Z,0
2017-03-12T04:42:33.322Z,0
2017-03-12T04:43:44.777Z,0
2017-03-12T04:44:56.420Z,0
2017-03-12T04:46:08.061Z,0
2017-03-12T04:47:19.920Z,0
2017-03-12T04:48:31.368Z,0
2017-03-12T04:49:43.009Z,0
2017-03-12T04:50:54.472Z,0
2017-03-12T04:52:05.940Z,0
2017-03-12T04:53:17.397Z,0
2017-03-12T04:54:29.027Z,0
2017-03-12T04:55:40.473Z,0
2017-03-12T04:56:51.933Z,0
2017-03-12T04:58:03.378Z,0
2017-03-12T04:59:15.021Z,0
2017-03-12T05:00:26.480Z,0
2017-03-12T05:01:38.342Z,0
2017-03-12T05:02:49.800Z,0
2017-03-12T05:04:01.250Z,0
2017-03-12T05:05:12.707Z,0
2017-03-12T05:06:24.146Z,0
2017-03-12T05:07:35.826Z,0
2017-03-12T05:08:47.274Z,0
2017-03-12T05:09:58.720Z,0
2017-03-12T05:11:10.200Z,0
2017-03-12T05:12:21.651Z,0
2017-03-12T05:13:33.085Z,0
2017-03-12T05:14:44.524Z,0
2017-03-12T05:15:55.968Z,0
2017-03-12T05:17:07.418Z,0
2017-03-12T05:18:18.854Z,0
2017-03-12T05:19:30.569Z,0
2017-03-12T05:20:42.014Z,0
2017-03-12T05:21:53.457Z,0
2017-03-12T05:23:04.920Z,0
2017-03-12T05:24:16.379Z,0
2017-03-12T05:25:28.032Z,0
2017-03-12T05:26:39.495Z,0
2017-03-12T05:27:50.941Z,0
2017-03-12T05:29:02.391Z,0
2017-03-12T05:30:13.898Z,0
2017-03-12T05:31:25.569Z,0
2017-03-12T05:32:37.058Z,0
2017-03-12T05:33:48.496Z,0
2017-03-12T05:34:59.964Z,0
2017-03-12T05:36:11.605Z,0
2017-03-12T05:37:23.076Z,5
2017-03-12T05:38:34.720Z,5
2017-03-12T05:39:46.182Z,5
2017-03-12T05:40:57.822Z,5
2017-03-12T05:42:09.281Z,10
2017-03-12T05:43:20.732Z,10
2017-03-12T05:44:32.188Z,10
2017-03-12T05:45:43.698Z,10
2017-03-12T05:46:55.165Z,15
2017-03-12T05:48:06.622Z,15
2017-03-12T05:49:18.067Z,15
2017-03-12T05:50:29.506Z,20
2017-03-12T05:51:40.948Z,20
2017-03-12T05:52:52.406Z,20
2017-03-12T05:54:03.853Z,25
2017-03-12T05:55:15.278Z,25
2017-03-12T05:56:26.724Z,30
2017-03-12T05:57:38.175Z,30
2017-03-12T05:58:49.611Z,35
2017-03-12T06:00:01.040Z,35
2017-03-12T06:01:12.547Z,35
2017-03-12T06:02:23.984Z,40
2017-03-12T06:03:35.424Z,45
2017-03-12T06:04:46.868Z,50
2017-03-12T06:05:58.544Z,55
2017-03-12T06:07:09.994Z,60
2017-03-12T06:08:21.444Z,65
2017-03-12T06:09:32.889Z,70
2017-03-12T06:10:44.317Z,70
2017-03-12T06:11:55.968Z,75
2017-03-12T06:13:07.414Z,80
2017-03-12T06:14:18.846Z,85
2017-03-12T06:15:30.279Z,95
2017-03-12T06:16:41.999Z,100
2017-03-12T06:17:53.443Z,120
2017-03-12T06:19:04.914Z,135
2017-03-12T06:20:16.359Z,150
2017-03-12T06:21:27.799Z,155
2017-03-12T06:22:39.253Z,155
2017-03-12T06:23:50.703Z,140
2017-03-12T06:25:02.146Z,145
2017-03-12T06:26:13.594Z,150
2017-03-12T06:27:25.044Z,155
2017-03-12T06:28:36.500Z,165
2017-03-12T06:29:47.978Z,180
2017-03-12T06:30:59.422Z,180
2017-03-12T06:32:11.268Z,190
2017-03-12T06:33:22.713Z,200
2017-03-12T06:34:34.154Z,200
2017-03-12T06:35:45.623Z,215
2017-03-12T06:36:57.070Z,240
2017-03-12T06:38:08.834Z,215
2017-03-12T06:39:20.281Z,225
2017-03-12T06:40:31.933Z,230
2017-03-12T06:41:43.405Z,250
2017-03-12T06:42:54.857Z,255
2017-03-12T06:44:06.528Z,260
2017-03-12T06:45:18.170Z,280
2017-03-12T06:46:29.612Z,305
2017-03-12T06:47:41.061Z,330
2017-03-12T06:48:52.811Z,325
2017-03-12T06:50:04.267Z,315
2017-03-12T06:51:15.727Z,325
2017-03-12T06:52:27.171Z,345
2017-03-12T06:53:38.615Z,345
2017-03-12T06:54:50.042Z,370
2017-03-12T06:56:01.522Z,435
2017-03-12T06:57:12.975Z,545
2017-03-12T06:58:24.412Z,560
2017-03-12T06:59:35.846Z,530
2017-03-12T07:00:47.294Z,520
2017-03-12T07:01:58.934Z,530
2017-03-12T07:03:10.586Z,540
2017-03-12T07:04:22.022Z,560
2017-03-12T07:05:33.471Z,610
2017-03-12T07:06:44.933Z,650
2017-03-12T07:07:56.370Z,705
2017-03-12T07:09:07.817Z,730
2017-03-12T07:10:19.301Z,795
2017-03-12T07:11:30.753Z,865
2017-03-12T07:12:42.209Z,975
2017-03-12T07:13:53.668Z,900
2017-03-12T07:15:05.115Z,900
2017-03-12T07:16:16.557Z,970
2017-03-12T07:17:28.020Z,860
2017-03-12T07:18:39.682Z,820
2017-03-12T07:19:51.840Z,815
2017-03-12T07:21:03.494Z,945
2017-03-12T07:22:14.949Z,955
2017-03-12T07:23:26.390Z,1040
2017-03-12T07:24:37.839Z,960
2017-03-12T07:25:49.319Z,970
2017-03-12T07:27:00.777Z,1145
2017-03-12T07:28:12.241Z,1210
2017-03-12T07:29:23.698Z,1180
2017-03-12T07:30:35.647Z,1065
2017-03-12T07:31:47.103Z,975
2017-03-12T07:32:58.559Z,785
2017-03-12T07:34:10.027Z,815
2017-03-12T07:35:21.487Z,940
2017-03-12T07:36:32.940Z,1370
2017-03-12T07:37:44.400Z,1260
2017-03-12T07:38:55.848Z,1215
2017-03-12T07:40:07.304Z,760
2017-03-12T07:41:18.765Z,865
2017-03-12T07:42:30.205Z,955
2017-03-12T07:43:41.859Z,775
2017-03-12T07:44:53.308Z,1120
2017-03-12T07:46:04.822Z,1315
2017-03-12T07:47:16.295Z,1430
2017-03-12T07:48:27.765Z,1305
2017-03-12T07:49:39.234Z,1100
2017-03-12T07:50:50.679Z,935
2017-03-12T07:52:02.123Z,1005
2017-03-12T07:53:13.645Z,1110
2017-03-12T07:54:25.283Z,1145
2017-03-12T07:55:36.949Z,1165
2017-03-12T07:56:48.671Z,1195
2017-03-12T07:58:00.138Z,1185
2017-03-12T07:59:11.580Z,1295
2017-03-12T08:00:23.059Z,1340
2017-03-12T08:01:34.533Z,1395
2017-03-12T08:02:45.986Z,1460
2017-03-12T08:03:57.453Z,1275
2017-03-12T08:05:08.914Z,1410
2017-03-12T08:06:20.381Z,1635
2017-03-12T08:07:31.894Z,1905
2017-03-12T08:08:43.356Z,2010
2017-03-12T08:09:54.826Z,2065
2017-03-12T08:11:06.289Z,1995
2017-03-12T08:12:17.768Z,1930
2017-03-12T08:13:29.245Z,1825
2017-03-12T08:14:40.704Z,1870
2017-03-12T08:15:52.162Z,1905
2017-03-12T08:17:03.647Z,1935
2017-03-12T08:18:15.102Z,1970
2017-03-12T08:19:26.542Z,1890
2017-03-12T08:20:37.999Z,1885
2017-03-12T08:21:49.667Z,1800
2017-03-12T08:23:01.160Z,1940
2017-03-12T08:24:12.614Z,1865
2017-03-12T08:25:24.080Z,1780
2017-03-12T08:26:35.571Z,1765
2017-03-12T08:27:47.038Z,1830
2017-03-12T08:28:58.502Z,1895
2017-03-12T08:30:10.188Z,1910
2017-03-12T08:31:21.660Z,1945
2017-03-12T08:32:33.126Z,1895
2017-03-12T08:33:44.643Z,1890
2017-03-12T08:34:56.106Z,2010
2017-03-12T08:36:07.559Z,2110
2017-03-12T08:37:19.214Z,2155
2017-03-12T08:38:30.672Z,2060
2017-03-12T08:39:42.135Z,2040
2017-03-12T08:40:53.604Z,2055
2017-03-12T08:42:05.096Z,2100
2017-03-12T08:43:16.558Z,2120
2017-03-12T08:44:28.027Z,1980
2017-03-12T08:45:39.486Z,1910
2017-03-12T08:46:51.152Z,1635
2017-03-12T08:48:02.621Z,1455
2017-03-12T08:49:14.402Z,1480
2017-03-12T08:50:25.848Z,1455
2017-03-12T08:51:37.495Z,1465
2017-03-12T08:52:49.362Z,1500
2017-03-12T08:54:00.826Z,1560
2017-03-12T08:55:12.284Z,1565
2017-03-12T08:56:23.736Z,1530
2017-03-12T08:57:35.396Z,1350
2017-03-12T08:58:46.850Z,1270
2017-03-12T08:59:58.611Z,1280
2017-03-12T09:01:10.107Z,1345
2017-03-12T09:02:21.564Z,1375
2017-03-12T09:03:33.049Z,1410
2017-03-12T09:04:44.501Z,1500
2017-03-12T09:05:55.952Z,1585
2017-03-12T09:07:07.619Z,1650
2017-03-12T09:08:19.097Z,1695
2017-03-12T09:09:30.537Z,1785
2017-03-12T09:10:42.291Z,1835
2017-03-12T09:11:53.961Z,1895
2017-03-12T09:13:05.640Z,1940
2017-03-12T09:14:17.091Z,2110
2017-03-12T09:15:28.558Z,2180
2017-03-12T09:16:40.032Z,2235
2017-03-12T09:17:51.499Z,2245
2017-03-12T09:19:02.966Z,2230
2017-03-12T09:20:14.416Z,2255
2017-03-12T09:21:26.091Z,2335
2017-03-12T09:22:37.574Z,2300
2017-03-12T09:23:49.059Z,2360
2017-03-12T09:25:00.513Z,2315
2017-03-12T09:26:12.453Z,2220
2017-03-12T09:27:23.910Z,2140
2017-03-12T09:28:35.380Z,2285
2017-03-12T09:29:47.061Z,2300
2017-03-12T09:30:58.714Z,2245
2017-03-12T09:32:10.195Z,2200
2017-03-12T09:33:21.877Z,2250
2017-03-12T09:34:33.340Z,2355
2017-03-12T09:35:44.846Z,2360
2017-03-12T09:36:56.596Z,2260
2017-03-12T09:38:08.062Z,2380
2017-03-12T09:39:19.731Z,2400
2017-03-12T09:40:31.203Z,2340
2017-03-12T09:41:42.842Z,2345
2017-03-12T09:42:54.326Z,2330
2017-03-12T09:44:06.013Z,2370
2017-03-12T09:45:17.515Z,2350
2017-03-12T09:46:28.988Z,2265
2017-03-12T09:47:40.451Z,2145
2017-03-12T09:48:51.923Z,2295
2017-03-12T09:50:03.393Z,2310
2017-03-12T09:51:15.067Z,2325
2017-03-12T09:52:26.540Z,2240
2017-03-12T09:53:38.010Z,2275
2017-03-12T09:54:49.465Z,2515
2017-03-12T09:56:00.940Z,2275
2017-03-12T09:57:12.618Z,2345
2017-03-12T09:58:24.496Z,2375
2017-03-12T09:59:36.168Z,2440
2017-03-12T10:00:47.833Z,2505
2017-03-12T10:01:59.297Z,2410
2017-03-12T10:03:10.766Z,2400
2017-03-12T10:04:22.444Z,2380
2017-03-12T10:05:33.949Z,2370
2017-03-12T10:06:45.810Z,2295
2017-03-12T10:07:57.281Z,2270
2017-03-12T10:09:08.758Z,2290
2017-03-12T10:10:20.231Z,2240
2017-03-12T10:11:31.898Z,2225
2017-03-12T10:12:43.861Z,2235
2017-03-12T10:13:55.329Z,2305
2017-03-12T10:15:06.806Z,2300
2017-03-12T10:16:18.301Z,2325
2017-03-12T10:17:29.979Z,2400
2017-03-12T10:18:41.453Z,2275
2017-03-12T10:19:52.930Z,2210
2017-03-12T10:21:04.379Z,2330
2017-03-12T10:22:15.835Z,2285
2017-03-12T10:23:27.517Z,2285
2017-03-12T10:24:39.189Z,2230
2017-03-12T10:25:50.664Z,2215
2017-03-12T10:27:02.148Z,2240
2017-03-12T10:28:13.919Z,2265
2017-03-12T10:29:25.380Z,2225
2017-03-12T10:30:36.859Z,2125
2017-03-12T10:31:48.513Z,2250
2017-03-12T10:32:59.985Z,2325
2017-03-12T10:34:11.468Z,2255
2017-03-12T10:35:22.935Z,2280
2017-03-12T10:36:34.406Z,2225
2017-03-12T10:37:45.869Z,2240
2017-03-12T10:38:57.819Z,2250
2017-03-12T10:40:09.276Z,2275
2017-03-12T10:41:20.942Z,2320
2017-03-12T10:42:32.444Z,2285
2017-03-12T10:43:43.899Z,2260
2017-03-12T10:44:55.374Z,2230
2017-03-12T10:46:06.824Z,2245
2017-03-12T10:47:18.314Z,2270
2017-03-12T10:48:29.799Z,2280
2017-03-12T10:49:41.479Z,2230
2017-03-12T10:50:52.938Z,2100
2017-03-12T10:52:04.609Z,2155
2017-03-12T10:53:16.104Z,2185
2017-03-12T10:54:27.567Z,2170
2017-03-12T10:55:39.028Z,2175
2017-03-12T10:56:50.487Z,2250
2017-03-12T10:58:01.954Z,2225
2017-03-12T10:59:13.610Z,2180
2017-03-12T11:00:25.289Z,2080
2017-03-12T11:01:36.765Z,2035
2017-03-12T11:02:48.238Z,1830
2017-03-12T11:04:00.330Z,1875
2017-03-12T11:05:11.844Z,1870
2017-03-12T11:06:23.317Z,1995
2017-03-12T11:07:34.775Z,1865
2017-03-12T11:08:46.253Z,2000
2017-03-12T11:09:57.736Z,1910
2017-03-12T11:11:09.212Z,2130
2017-03-12T11:12:20.705Z,2075
2017-03-12T11:13:32.198Z,2065
2017-03-12T11:14:43.685Z,2110
2017-03-12T11:15:55.203Z,2090
2017-03-12T11:17:06.665Z,2045
2017-03-12T11:18:18.144Z,2050
2017-03-12T11:19:29.819Z,2055
2017-03-12T11:20:41.495Z,2080
2017-03-12T11:21:52.971Z,2065
2017-03-12T11:23:04.657Z,2065
2017-03-12T11:24:16.135Z,2075
2017-03-12T11:25:27.821Z,2025
2017-03-12T11:26:39.341Z,2020
2017-03-12T11:27:51.034Z,2020
2017-03-12T11:29:02.506Z,1950
2017-03-12T11:30:13.965Z,1925
2017-03-12T11:31:25.420Z,1925
2017-03-12T11:32:36.925Z,1890
2017-03-12T11:33:48.388Z,1915
2017-03-12T11:34:59.867Z,1870
2017-03-12T11:36:11.331Z,1840
2017-03-12T11:37:22.838Z,1850
2017-03-12T11:38:34.334Z,1830
2017-03-12T11:39:46.013Z,1835
2017-03-12T11:40:57.488Z,1860
2017-03-12T11:42:08.989Z,1765
2017-03-12T11:43:20.464Z,1700
2017-03-12T11:44:31.938Z,1700
2017-03-12T11:45:43.397Z,1705
2017-03-12T11:46:54.856Z,1720
2017-03-12T11:48:06.307Z,1690
2017-03-12T11:49:17.764Z,1655
2017-03-12T11:50:29.241Z,1635
2017-03-12T11:51:40.917Z,1585
2017-03-12T11:52:52.395Z,1600
2017-03-12T11:54:04.068Z,1545
2017-03-12T11:55:15.575Z,1545
2017-03-12T11:56:27.041Z,1510
2017-03-12T11:57:39.020Z,1460
2017-03-12T11:58:50.475Z,1530
2017-03-12T12:00:01.941Z,1515
2017-03-12T12:01:13.603Z,1475
2017-03-12T12:02:25.087Z,1495
2017-03-12T12:03:36.762Z,1475
2017-03-12T12:04:48.242Z,1440
2017-03-12T12:05:59.883Z,1425
2017-03-12T12:07:11.345Z,1375
2017-03-12T12:08:22.835Z,1325
2017-03-12T12:09:34.287Z,1310
2017-03-12T12:10:45.958Z,1360
2017-03-12T12:11:57.439Z,1365
2017-03-12T12:13:08.941Z,1275
2017-03-12T12:14:20.432Z,1205
2017-03-12T12:15:31.889Z,1190
2017-03-12T12:16:43.373Z,1185
2017-03-12T12:17:54.838Z,1180
2017-03-12T12:19:06.492Z,1190
2017-03-12T12:20:17.986Z,1155
2017-03-12T12:21:29.644Z,1155
2017-03-12T12:22:41.120Z,1160
2017-03-12T12:23:52.796Z,1235
2017-03-12T12:25:04.471Z,1205
2017-03-12T12:26:15.930Z,1145
2017-03-12T12:27:27.398Z,1070
2017-03-12T12:28:39.205Z,1065
2017-03-12T12:29:50.665Z,1005
2017-03-12T12:31:02.134Z,960
2017-03-12T12:32:13.805Z,880
2017-03-12T12:33:25.263Z,790
2017-03-12T12:34:36.728Z,735
2017-03-12T12:35:48.188Z,695
2017-03-12T12:36:59.665Z,695
2017-03-12T12:38:11.110Z,675
2017-03-12T12:39:22.885Z,600
2017-03-12T12:40:34.349Z,640
2017-03-12T12:41:45.826Z,660
2017-03-12T12:42:57.304Z,725
2017-03-12T12:44:08.750Z,780
2017-03-12T12:45:20.212Z,955
2017-03-12T12:46:31.678Z,960
2017-03-12T12:47:43.141Z,965
2017-03-12T12:48:54.599Z,930
2017-03-12T12:50:06.099Z,775
2017-03-12T12:51:17.764Z,805
2017-03-12T12:52:29.212Z,820
2017-03-12T12:53:40.910Z,755
2017-03-12T12:54:52.567Z,800
2017-03-12T12:56:04.038Z,795
2017-03-12T12:57:15.697Z,790
2017-03-12T12:58:27.160Z,720
2017-03-12T12:59:38.833Z,730
2017-03-12T13:00:50.505Z,680
2017-03-12T13:02:02.192Z,550
2017-03-12T13:03:13.679Z,620
2017-03-12T13:04:25.355Z,610
2017-03-12T13:05:36.867Z,630
2017-03-12T13:06:48.346Z,715
2017-03-12T13:08:00.029Z,690
2017-03-12T13:09:11.503Z,625
2017-03-12T13:10:22.984Z,525
2017-03-12T13:11:34.645Z,465
2017-03-12T13:12:46.107Z,440
2017-03-12T13:13:57.566Z,425
2017-03-12T13:15:09.245Z,430
2017-03-12T13:16:20.698Z,430
2017-03-12T13:17:32.375Z,410
2017-03-12T13:18:43.836Z,400
2017-03-12T13:19:55.278Z,375
2017-03-12T13:21:06.791Z,375
2017-03-12T13:22:18.460Z,400
2017-03-12T13:23:30.107Z,410
2017-03-12T13:24:41.767Z,410
2017-03-12T13:25:53.536Z,400
2017-03-12T13:27:05.201Z,395
2017-03-12T13:28:16.670Z,380
2017-03-12T13:29:28.133Z,355
2017-03-12T13:30:39.593Z,390
2017-03-12T13:31:51.048Z,390
2017-03-12T13:33:02.513Z,385
2017-03-12T13:34:13.967Z,370
2017-03-12T13:35:25.424Z,335
2017-03-12T13:36:36.879Z,320
2017-03-12T13:37:48.358Z,340
2017-03-12T13:38:59.819Z,350
2017-03-12T13:40:11.275Z,335
2017-03-12T13:41:22.733Z,325
2017-03-12T13:42:34.413Z,330
2017-03-12T13:43:45.893Z,340
2017-03-12T13:44:57.363Z,340
2017-03-12T13:46:09.018Z,335
2017-03-12T13:47:20.494Z,340
2017-03-12T13:48:31.966Z,340
2017-03-12T13:49:43.632Z,330
2017-03-12T13:50:55.104Z,310
2017-03-12T13:52:06.557Z,315
2017-03-12T13:53:18.005Z,305
2017-03-12T13:54:29.473Z,305
2017-03-12T13:55:40.934Z,310
2017-03-12T13:56:52.428Z,305
2017-03-12T13:58:03.883Z,300
2017-03-12T13:59:15.333Z,290
2017-03-12T14:00:27.188Z,300
2017-03-12T14:01:38.700Z,310
2017-03-12T14:02:50.390Z,310
2017-03-12T14:04:01.839Z,305
2017-03-12T14:05:13.487Z,310
2017-03-12T14:06:24.950Z,305
2017-03-12T14:07:36.412Z,310
2017-03-12T14:08:47.877Z,310
2017-03-12T14:09:59.341Z,305
2017-03-12T14:11:10.799Z,300
2017-03-12T14:12:22.522Z,310
2017-03-12T14:13:33.971Z,305
2017-03-12T14:14:45.446Z,310
2017-03-12T14:15:56.917Z,310
2017-03-12T14:17:08.599Z,305
2017-03-12T14:18:20.068Z,300
2017-03-12T14:19:31.513Z,295
2017-03-12T14:20:42.957Z,295
2017-03-12T14:21:54.407Z,290
2017-03-12T14:23:05.913Z,275
2017-03-12T14:24:17.357Z,275
2017-03-12T14:25:29.004Z,270
2017-03-12T14:26:40.467Z,265
2017-03-12T14:27:51.918Z,275
2017-03-12T14:29:03.364Z,275
2017-03-12T14:30:14.826Z,265
2017-03-12T14:31:26.288Z,270
2017-03-12T14:32:37.749Z,260
2017-03-12T14:33:49.213Z,245
2017-03-12T14:35:00.666Z,235
2017-03-12T14:36:12.334Z,230
2017-03-12T14:37:24.006Z,235
2017-03-12T14:38:35.768Z,235
2017-03-12T14:39:47.617Z,240
2017-03-12T14:40:59.321Z,240
2017-03-12T14:42:10.795Z,240
2017-03-12T14:43:22.259Z,240
2017-03-12T14:44:33.756Z,235
2017-03-12T14:45:45.229Z,235
2017-03-12T14:46:56.686Z,230
2017-03-12T14:48:08.537Z,230
2017-03-12T14:49:19.990Z,230
2017-03-12T14:50:31.452Z,225
2017-03-12T14:51:43.123Z,225
2017-03-12T14:52:54.815Z,225
2017-03-12T14:54:06.570Z,225
2017-03-12T14:55:18.026Z,225
2017-03-12T14:56:29.671Z,220
2017-03-12T14:57:41.117Z,220
2017-03-12T14:58:52.569Z,220
2017-03-12T15:00:04.018Z,220
2017-03-12T15:01:15.695Z,220
2017-03-12T15:02:27.352Z,220
2017-03-12T15:03:38.809Z,220
2017-03-12T15:04:50.459Z,220
2017-03-12T15:06:01.922Z,220
2017-03-12T15:07:13.384Z,215
2017-03-12T15:08:25.058Z,215
2017-03-12T15:09:36.573Z,220
2017-03-12T15:10:48.019Z,210
2017-03-12T15:11:59.495Z,210
2017-03-12T15:13:10.942Z,210
2017-03-12T15:14:22.406Z,210
2017-03-12T15:15:33.865Z,205
2017-03-12T15:16:45.306Z,205
2017-03-12T15:17:56.757Z,205
2017-03-12T15:19:08.408Z,200
2017-03-12T15:20:19.884Z,200
2017-03-12T15:21:31.530Z,205
2017-03-12T15:22:42.979Z,200
2017-03-12T15:23:54.445Z,195
2017-03-12T15:25:05.903Z,195
2017-03-12T15:26:17.359Z,195
2017-03-12T15:27:28.827Z,195
2017-03-12T15:28:40.302Z,195
2017-03-12T15:29:51.766Z,195
2017-03-12T15:31:03.223Z,190
2017-03-12T15:32:14.690Z,190
2017-03-12T15:33:26.140Z,190
2017-03-12T15:34:37.602Z,185
2017-03-12T15:35:49.081Z,185
2017-03-12T15:37:00.752Z,185
2017-03-12T15:38:12.208Z,180
2017-03-12T15:39:23.861Z,180
2017-03-12T15:40:35.361Z,180
2017-03-12T15:41:46.819Z,180
2017-03-12T15:42:58.508Z,175
2017-03-12T15:44:09.981Z,175
2017-03-12T15:45:21.470Z,175
2017-03-12T15:46:32.913Z,170
2017-03-12T15:47:44.375Z,170
2017-03-12T15:48:55.834Z,170
2017-03-12T15:50:07.290Z,170
2017-03-12T15:51:18.810Z,165
2017-03-12T15:52:30.465Z,160
2017-03-12T15:53:41.922Z,170
2017-03-12T15:54:53.395Z,160
2017-03-12T15:56:04.853Z,160
2017-03-12T15:57:16.515Z,160
2017-03-12T15:58:27.958Z,150
2017-03-12T15:59:39.397Z,150
2017-03-12T16:00:50.843Z,150
2017-03-12T16:02:02.367Z,150
2017-03-12T16:03:13.829Z,150
2017-03-12T16:04:25.282Z,150
2017-03-12T16:05:36.958Z,150
2017-03-12T16:06:48.415Z,145
2017-03-12T16:07:59.890Z,145
2017-03-12T16:09:11.365Z,140
2017-03-12T16:10:22.841Z,140
2017-03-12T16:11:34.301Z,135
2017-03-12T16:12:45.776Z,135
2017-03-12T16:13:57.255Z,135
2017-03-12T16:15:08.914Z,130
2017-03-12T16:16:20.348Z,130
2017-03-12T16:17:32.087Z,125
2017-03-12T16:18:43.550Z,125
2017-03-12T16:19:55.015Z,120
2017-03-12T16:21:06.685Z,120
2017-03-12T16:22:18.149Z,120
2017-03-12T16:23:29.616Z,115
2017-03-12T16:24:41.103Z,115
2017-03-12T16:25:52.586Z,110
2017-03-12T16:27:04.046Z,110
2017-03-12T16:28:15.520Z,110
2017-03-12T16:29:26.977Z,110
2017-03-12T16:30:38.436Z,110
2017-03-12T16:31:49.898Z,105
2017-03-12T16:33:01.403Z,105
2017-03-12T16:34:13.058Z,100
2017-03-12T16:35:24.508Z,95
2017-03-12T16:36:35.977Z,90
2017-03-12T16:37:47.620Z,90
2017-03-12T16:38:59.098Z,90